Paulistana II — 00 — position and weather

sailwx.info

Track history (hours):
 
Tides and Currents Weather Stations Pressure Air Temp Water Temp Dewpoint Dewpoint Depression Visibility Wind Speed Wind Dir Waves Ship Positions

Paulistana II

Last reported at 2014-Jul-30 12:28 UTC. Time now 2014-Jul-30 13:14 UTC.
Position N 29°56' E 121°41'.

Length 6 m.

Type: Pollution control. MMSI: 316014038.

Date/timePositionNaut miles runAvg speedWind from/ knotsBaromVisibWave heightAir tempDewpointWater temp
2014-Jul-30 12:28N 29°56' E 121°41'746549218.8
2014-Jul-30 12:18N 29°33' W 095°02'7448496527.0
2014-Jul-30 12:18N 29°49' E 122°06'744810133.2
2014-Jul-30 11:33N 29°33' W 095°02'744216787.6
2014-Jul-30 11:07N 31°60' E 120°38'744213376.4
2014-Jul-30 10:33N 29°33' W 095°02'7445101141.7
2014-Jul-30 10:29N 31°60' E 120°35'74458039.2
2014-Jul-30 09:33N 29°33' W 095°02'744774263.0
2014-Jul-30 09:27N 32°01' E 120°32'74478276.9
2014-Jul-30 08:33N 29°33' W 095°02'744789963.1
2014-Jul-30 08:29N 32°01' E 120°32'74477701.5
2014-Jul-30 07:31N 29°33' W 095°02'7447223406.6
2014-Jul-30 07:29N 32°01' E 120°32'74478123.9
2014-Jul-30 06:34N 29°33' W 095°02'74474468084.9
2014-Jul-30 06:33N 32°01' E 120°32'74477459.2
2014-Jul-30 05:34N 29°33' W 095°02'74478936169.8
2014-Jul-30 05:33N 32°01' E 120°32'613087226.7
2014-Jul-30 05:29N 33°37' W 117°55'11951286.8
2014-Jul-30 04:34N 29°33' W 095°02'74473829787.1
2014-Jul-30 04:33N 32°01' E 120°32'613088627.9
2014-Jul-30 04:29N 33°37' W 117°55'61306323.3
2014-Jul-30 03:31N 32°01' E 120°32'7447788485.6
2014-Jul-30 03:31N 29°33' W 095°02'74507825.9
2014-Jul-30 02:33N 32°02' E 120°28'7450155926.7
2014-Jul-30 02:31N 29°33' W 095°02'11956971.9
2014-Jul-30 02:20N 33°37' W 117°55'61407774.9
2014-Jul-30 01:33N 31°59' E 120°22'6140631544.1
2014-Jul-30 01:32N 33°37' W 117°55'119541362.3
2014-Jul-30 01:31N 29°33' W 095°02'74657713.2
2014-Jul-30 00:32N 31°56' E 120°15'7465231662.4
2014-Jul-30 00:31N 29°33' W 095°02'746520945.6
2014-Jul-30 00:09N 29°56' E 121°41'746511608.3
2014-Jul-29 23:31N 29°33' W 095°02'119557355.7
2014-Jul-29 23:29N 33°37' W 117°55'11951220.3
2014-Jul-29 22:31N 29°33' W 095°02'119516803.4
2014-Jul-29 22:26N 33°37' W 117°55'0 0.0
2014-Jul-29 21:32N 33°37' W 117°55'119541763.9
2014-Jul-29 21:31N 29°33' W 095°02'11951230.1
2014-Jul-29 20:32N 33°37' W 117°55'119541763.9
2014-Jul-29 20:31N 29°33' W 095°02'0 0.0
2014-Jul-29 19:31N 29°33' W 095°02'7420129034.8
2014-Jul-29 19:27N 31°24' E 121°30'74207475.6
2014-Jul-29 18:28N 29°33' W 095°02'0 0.0
2014-Jul-29 17:31N 29°33' W 095°02'0 0.0
2014-Jul-29 16:31N 29°33' W 095°02'74212226177.9
2014-Jul-29 16:30N 31°31' E 121°25'6104348790.9
2014-Jul-29 16:29N 33°37' W 117°55'61026524.5
2014-Jul-29 15:33N 31°27' E 121°29'7419170117.1
2014-Jul-29 15:31N 29°33' W 095°02'746555294.6
2014-Jul-29 15:23N 29°56' E 121°41'61457350.0
2014-Jul-29 14:32N 33°37' W 117°55'6101238729.0
2014-Jul-29 14:31N 31°25' E 121°32'74182225294.2
2014-Jul-29 14:31N 29°33' W 095°02'7465767804.6
2014-Jul-29 14:30N 29°56' E 121°41'89339.5
2014-Jul-29 14:14N 31°24' E 121°30'1 1.8
2014-Jul-29 13:33N 31°25' E 121°32'7418162836.7
2014-Jul-29 13:31N 29°33' W 095°02'119556601.0
2014-Jul-29 13:29N 33°37' W 117°55'610321288.0
2014-Jul-29 13:12N 31°24' E 121°30'5 7.1
2014-Jul-29 12:33N 31°20' E 121°33'7420157124.2
2014-Jul-29 12:31N 29°33' W 095°02'7465671828.7
2014-Jul-29 12:30N 29°56' E 121°41'6145597932.0
2014-Jul-29 12:29N 33°37' W 117°55'0 0.0
2014-Jul-29 11:32N 33°37' W 117°55'119540968.4
2014-Jul-29 11:31N 29°33' W 095°02'746566517.7
2014-Jul-29 11:24N 29°56' E 121°41'61457152.8
2014-Jul-29 10:32N 33°37' W 117°55'119541362.3
2014-Jul-29 10:31N 29°33' W 095°02'7465610753.3
2014-Jul-29 10:30N 29°56' E 121°41'89451.8
2014-Jul-29 10:18N 31°24' E 121°30'74199381.8
2014-Jul-29 09:31N 29°33' W 095°02'119555866.0
2014-Jul-29 09:29N 33°37' W 117°55'614571136.6
2014-Jul-29 09:24N 29°56' E 121°41'61457120.5
2014-Jul-29 08:32N 33°37' W 117°55'119540581.9
2014-Jul-29 08:31N 29°33' W 095°02'745919599.8
2014-Jul-29 08:08N 29°59' E 121°46'614010406.1
2014-Jul-29 07:32N 33°37' W 117°55'119540968.4
2014-Jul-29 07:31N 29°33' W 095°02'7455378000.6
2014-Jul-29 07:30N 30°02' E 121°48'61366449.5
2014-Jul-29 06:32N 33°37' W 117°55'119541362.3
2014-Jul-29 06:31N 29°33' W 095°02'74277696.0
2014-Jul-29 05:33N 31°13' E 121°30'7427215610.9
2014-Jul-29 05:31N 29°33' W 095°02'119516803.4
2014-Jul-29 05:26N 33°37' W 117°55'11951286.4
2014-Jul-29 04:31N 29°33' W 095°02'119555865.9
2014-Jul-29 04:29N 33°37' W 117°55'61036398.1
2014-Jul-29 03:32N 31°20' E 121°33'61031464746.9
2014-Jul-29 03:32N 33°37' W 117°55'119558130.8
2014-Jul-29 03:31N 29°33' W 095°02'731319035.2
2014-Jul-29 03:08N 39°05' E 117°52'496835.2
2014-Jul-29 02:32N 31°22' E 121°30'61045493789.1
2014-Jul-29 02:32N 33°37' W 117°55'119558130.8
2014-Jul-29 02:31N 29°33' W 095°02'74197719.4
2014-Jul-29 01:33N 31°24' E 121°31'6102343254.7
2014-Jul-29 01:32N 33°37' W 117°55'119558130.8
2014-Jul-29 01:31N 29°33' W 095°02'11951219.6
2014-Jul-29 00:32N 33°37' W 117°55'119558927.1
2014-Jul-29 00:31N 29°33' W 095°02'11951220.0
2014-Jul-28 23:32N 33°37' W 117°55'119558130.8
2014-Jul-28 23:31N 29°33' W 095°02'744680743.7
2014-Jul-28 23:25N 30°16' E 121°48'74468202.9
2014-Jul-28 22:31N 29°33' W 095°02'119515040.8
2014-Jul-28 22:26N 33°37' W 117°55'611615816.6
2014-Jul-28 22:03N 30°25' E 121°56'743413924.2
2014-Jul-28 21:31N 29°33' W 095°02'119540968.4
2014-Jul-28 21:29N 33°37' W 117°55'61111157817.4
2014-Jul-28 21:29N 30°28' E 122°00'6 6.5
2014-Jul-28 20:33N 30°31' E 122°06'6104258514.9
2014-Jul-28 20:32N 33°37' W 117°55'119558130.8
2014-Jul-28 20:31N 29°33' W 095°02'74147767.4
2014-Jul-28 19:34N 30°36' E 122°12'7414164746.2
2014-Jul-28 19:31N 29°33' W 095°02'74067672.4
2014-Jul-28 18:33N 30°44' E 122°15'6089421522.6
2014-Jul-28 18:32N 33°37' W 117°55'119558927.1
2014-Jul-28 18:31N 29°33' W 095°02'73987708.0
2014-Jul-28 17:33N 30°50' E 122°20'6081312712.1
2014-Jul-28 17:32N 33°37' W 117°55'119558130.8
2014-Jul-28 17:31N 29°33' W 095°02'0 0.0
2014-Jul-28 16:31N 29°33' W 095°02'738451519.3
2014-Jul-28 16:22N 30°56' E 122°31'73848620.0
2014-Jul-28 15:31N 29°33' W 095°02'0 0.0
2014-Jul-28 14:31N 29°33' W 095°02'0 0.0
2014-Jul-28 13:31N 29°33' W 095°02'0 0.0
2014-Jul-28 12:31N 29°33' W 095°02'11959231.1
2014-Jul-28 12:23N 33°37' W 117°55'0 0.0
2014-Jul-28 11:32N 33°37' W 117°55'119558130.8
2014-Jul-28 11:31N 29°33' W 095°02'0 0.0
2014-Jul-28 10:31N 29°33' W 095°02'0 0.0
2014-Jul-28 09:31N 29°33' W 095°02'0 0.0
2014-Jul-28 08:28N 29°33' W 095°02'11951286.4
2014-Jul-28 07:32N 33°37' W 117°55'119516869.3
2014-Jul-28 07:28N 29°33' W 095°02'11951285.6
2014-Jul-28 06:32N 33°37' W 117°55'119559745.5
2014-Jul-28 06:31N 29°33' W 095°02'0 0.0
2014-Jul-28 05:31N 29°33' W 095°02'119540202.6
2014-Jul-28 05:29N 33°37' W 117°55'0 0.0
2014-Jul-28 04:32N 33°37' W 117°55'119556601.0
2014-Jul-28 04:31N 29°33' W 095°02'11951220.3
2014-Jul-28 03:32N 33°37' W 117°55'11959911.7
2014-Jul-28 03:25N 29°33' W 095°02'11951359.1
2014-Jul-28 02:32N 33°37' W 117°55'119557355.7
2014-Jul-28 02:31N 29°33' W 095°02'0 0.0
2014-Jul-28 01:16N 29°33' W 095°02'11951638.1
2014-Jul-28 00:32N 33°37' W 117°55'119558130.9
2014-Jul-28 00:31N 29°33' W 095°02'73107599.1
2014-Jul-27 23:33N 39°04' E 117°56'6009343396.8
2014-Jul-27 23:32N 33°37' W 117°55'119558927.1
2014-Jul-27 23:31N 29°33' W 095°02'772618909.0
2014-Jul-27 23:06N 25°45' E 119°39'8031414.9
2014-Jul-27 22:32N 39°04' E 117°55'731159141.9
2014-Jul-27 22:25N 29°33' W 095°02'73108399.7
2014-Jul-27 21:33N 39°04' E 117°56'601021634654.6
2014-Jul-27 21:33N 33°37' W 117°55'119515146.8
2014-Jul-27 21:28N 29°33' W 095°02'248415231.4
2014-Jul-27 21:18N 58°37' W 136°03'43475597.4
2014-Jul-27 20:32N 39°05' E 117°56'7310692493.9
2014-Jul-27 20:31N 29°33' W 095°02'2481637890.1
2014-Jul-27 20:31N 58°31' W 136°04'43474441.8
2014-Jul-27 19:32N 39°09' E 117°53'7309424407.8
2014-Jul-27 19:31N 29°33' W 095°02'0 0.0
2014-Jul-27 18:31N 29°33' W 095°02'24732579.5
2014-Jul-27 17:34N 58°27' W 135°53'247312999.4
2014-Jul-27 17:22N 29°33' W 095°02'24732968.8
2014-Jul-27 16:32N 58°22' W 135°58'247336790.7
2014-Jul-27 16:28N 29°33' W 095°02'0 0.0
2014-Jul-27 15:28N 29°33' W 095°02'74208144.1
2014-Jul-27 14:33N 31°20' E 121°33'742053424.9
2014-Jul-27 14:25N 29°33' W 095°02'74208630.2
2014-Jul-27 13:33N 31°24' E 121°31'742052892.0
2014-Jul-27 13:25N 29°33' W 095°02'74208564.6
2014-Jul-27 12:33N 31°27' E 121°27'420116300.5
2014-Jul-27 12:33N 24°48' E 118°58'7798262375.6
2014-Jul-27 12:31N 29°33' W 095°02'744722304.1
2014-Jul-27 12:11N 32°01' E 120°32'2 3.0
2014-Jul-27 11:33N 32°02' E 120°30'744894085.0
2014-Jul-27 11:28N 29°33' W 095°02'742340738.6
2014-Jul-27 11:17N 31°33' E 121°20'5575.6
2014-Jul-27 10:34N 32°00' E 120°24'745582827.9
2014-Jul-27 10:28N 29°33' W 095°02'74618179.0
2014-Jul-27 09:33N 31°57' E 120°18'746184999.5
2014-Jul-27 09:28N 29°33' W 095°02'717817919.7
2014-Jul-27 09:04N 36°14' E 122°44'287540.8
2014-Jul-27 08:32N 31°56' E 120°14'7466383964.1
2014-Jul-27 08:31N 29°33' W 095°02'0 0.0
2014-Jul-27 07:28N 29°33' W 095°02'11953633.2
2014-Jul-27 07:08N 33°37' W 117°55'58588506.5
2014-Jul-27 06:27N 36°41' E 122°45'5858514334.6
2014-Jul-27 06:26N 33°37' W 117°55'119558130.7
2014-Jul-27 06:25N 29°33' W 095°02'71548244.4
2014-Jul-27 05:33N 36°50' E 122°45'715486718.6
2014-Jul-27 05:28N 29°33' W 095°02'119514988.4
2014-Jul-27 05:23N 33°37' W 117°55'610047636.7
2014-Jul-27 05:16N 31°25' E 121°33'4592852.0
2014-Jul-27 05:06N 24°25' E 118°04'88226691.0
2014-Jul-27 05:04N 39°07' E 117°54'262491.8
2014-Jul-27 04:32N 37°01' E 122°46'7147494782.3
2014-Jul-27 04:31N 29°33' W 095°02'11953142.2
2014-Jul-27 04:08N 33°37' W 117°55'58399923.9
2014-Jul-27 03:33N 37°13' E 122°46'5839488808.1
2014-Jul-27 03:32N 33°37' W 117°55'11957028.9
2014-Jul-27 03:22N 29°33' W 095°02'0 0.0
2014-Jul-27 02:31N 29°33' W 095°02'713218537.5
2014-Jul-27 02:08N 37°28' E 122°44'713211591.2
2014-Jul-27 01:31N 29°33' W 095°02'11956669.3
2014-Jul-27 01:20N 33°37' W 117°55'58361909958.8
2014-Jul-27 01:20N 37°32' E 122°36'8 9.9
2014-Jul-27 00:30N 37°35' E 122°26'7143191893.0
2014-Jul-27 00:28N 29°33' W 095°02'71507807.2
2014-Jul-26 23:33N 37°38' E 122°15'715084951.9
2014-Jul-26 23:28N 29°33' W 095°02'71587818.3
2014-Jul-26 22:33N 37°41' E 122°03'7158211222.3
2014-Jul-26 22:31N 29°33' W 095°02'71667373.3
2014-Jul-26 21:33N 37°44' E 121°50'716691812.4
2014-Jul-26 21:28N 29°33' W 095°02'12949045.2
2014-Jul-26 21:20N 41°16' W 072°49'874711302.2
2014-Jul-26 20:33N 39°04' E 117°56'19040149.3
2014-Jul-26 20:33N 37°48' E 121°37'89992024714.0
2014-Jul-26 20:33N 41°16' W 072°46'129654869.0
2014-Jul-26 20:31N 29°33' W 095°02'12961339.7
2014-Jul-26 19:33N 41°15' W 072°45'8738953233.8
2014-Jul-26 19:33N 39°08' E 117°53'1824012.5
2014-Jul-26 19:30N 37°51' E 121°24'7184261242.8
2014-Jul-26 19:28N 29°33' W 095°02'745858878.1
2014-Jul-26 19:21N 31°60' E 120°20'931411782.0
2014-Jul-26 18:33N 41°15' W 072°45'9316958264.1
2014-Jul-26 18:33N 32°02' E 120°26'3556949.5
2014-Jul-26 18:30N 37°55' E 121°11'719399591.9
2014-Jul-26 18:25N 29°33' W 095°02'12951480.4
2014-Jul-26 17:33N 41°14' W 072°46'129551780.1
2014-Jul-26 17:31N 29°33' W 095°02'72097453.7
2014-Jul-26 16:33N 38°00' E 120°47'7209218098.0
2014-Jul-26 16:31N 29°33' W 095°02'0 0.0
2014-Jul-26 15:31N 29°33' W 095°02'0 0.0
2014-Jul-26 14:31N 29°33' W 095°02'0 0.0
2014-Jul-26 13:28N 29°33' W 095°02'0 0.0
2014-Jul-26 12:19N 29°33' W 095°02'0 0.0
2014-Jul-26 11:25N 29°33' W 095°02'724971496.6
2014-Jul-26 11:19N 38°20' E 119°44'72499077.0
2014-Jul-26 10:31N 29°33' W 095°02'725639337.9
2014-Jul-26 10:20N 38°25' E 119°32'72568896.6
2014-Jul-26 09:31N 29°33' W 095°02'726443223.5
2014-Jul-26 09:21N 38°28' E 119°20'72648740.0
2014-Jul-26 08:31N 29°33' W 095°02'0 0.0
2014-Jul-26 07:31N 29°33' W 095°02'727994949.7
2014-Jul-26 07:27N 38°33' E 118°57'72797886.3
2014-Jul-26 06:31N 29°33' W 095°02'73042199.0
2014-Jul-26 03:12N 38°49' E 118°14'7 9.2
2014-Jul-26 02:26N 38°53' E 118°07'9 9.8
2014-Jul-26 01:33N 38°57' E 117°56'8 8.5
2014-Jul-26 00:33N 38°58' E 117°46'3 2.7
2014-Jul-25 23:33N 38°60' E 117°43'1 1.2
2014-Jul-25 22:33N 38°60' E 117°41'2 2.2
2014-Jul-25 21:33N 39°00' E 117°39'49629246.0
2014-Jul-25 21:32N 31°22' E 121°29'74231234.6
2014-Jul-25 15:31N 29°33' W 095°02'0 0.0
2014-Jul-25 14:25N 29°33' W 095°02'0 0.0
2014-Jul-25 13:23N 29°33' W 095°02'0 0.0
2014-Jul-25 12:32N 29°33' W 095°02'0 0.0
2014-Jul-25 11:20N 29°33' W 095°02'0 0.0
2014-Jul-25 10:29N 29°33' W 095°02'0 0.0
2014-Jul-25 09:26N 29°33' W 095°02'0 0.0
2014-Jul-25 08:23N 29°33' W 095°02'0 0.0
2014-Jul-25 07:26N 29°33' W 095°02'0 0.0
2014-Jul-25 06:29N 29°33' W 095°02'0 0.0
2014-Jul-25 05:32N 29°33' W 095°02'0 0.0
2014-Jul-25 04:32N 29°33' W 095°02'11958672.7
2014-Jul-25 04:23N 33°37' W 117°55'11951386.3
2014-Jul-25 03:32N 29°33' W 095°02'11959270.9
2014-Jul-25 03:24N 33°37' W 117°55'0 0.0
2014-Jul-25 02:33N 33°37' W 117°55'11954398.4
2014-Jul-25 02:17N 29°33' W 095°02'7426417720.9
2014-Jul-25 02:16N 31°21' E 121°25'61098584.2
2014-Jul-25 01:33N 33°37' W 117°55'6107422786.0
2014-Jul-25 01:32N 31°21' E 121°27'3 2.7
2014-Jul-25 00:30N 31°23' E 121°30'6104108244.3
2014-Jul-25 00:27N 33°37' W 117°55'119516935.8
2014-Jul-25 00:23N 29°33' W 095°02'11951358.7
2014-Jul-24 23:30N 33°37' W 117°55'119558130.8
2014-Jul-24 23:29N 29°33' W 095°02'0 0.0
2014-Jul-24 22:33N 29°33' W 095°02'119512432.6
2014-Jul-24 22:27N 33°37' W 117°55'0 0.0
2014-Jul-24 20:18N 33°37' W 117°55'22192351.2
2014-Jul-24 19:21N 41°19' W 072°21'1 0.7
2014-Jul-24 18:33N 41°18' W 072°21'92926653.2
2014-Jul-24 17:09N 31°58' E 120°18'3 5.8
2014-Jul-24 16:33N 32°00' E 120°22'9292643307.0
2014-Jul-24 16:32N 41°19' W 072°21'92929431.3
2014-Jul-24 15:33N 32°03' E 120°26'9292631184.5
2014-Jul-24 15:32N 41°19' W 072°21'0 0.0
2014-Jul-24 14:29N 41°19' W 072°21'93042320.3
2014-Jul-24 10:29N 32°01' E 120°37'3 3.0
2014-Jul-24 09:33N 32°00' E 120°40'4 3.9
2014-Jul-24 08:32N 32°01' E 120°44'447103.5
2014-Jul-24 04:12N 39°02' E 117°37'0 0.0
2014-Jul-24 03:32N 39°02' E 117°37'0 0.0
2014-Jul-24 02:32N 39°02' E 117°37'0 0.0
2014-Jul-24 01:32N 39°02' E 117°37'60266061.4
2014-Jul-24 00:33N 33°37' W 117°55'6026943207.0
2014-Jul-24 00:32N 39°02' E 117°37'60266063.1
2014-Jul-23 23:33N 33°37' W 117°55'6026903906.7
2014-Jul-23 23:32N 39°02' E 117°37'4483209.9
2014-Jul-23 23:24N 32°01' E 120°48'448448.5
2014-Jul-23 22:24N 39°01' E 117°38'2 2.4
2014-Jul-23 21:32N 39°00' E 117°40'1440.9
2014-Jul-23 21:12N 38°57' E 117°58'601259626.8
2014-Jul-23 21:06N 33°37' W 117°55'602410400.7
2014-Jul-23 20:31N 38°60' E 117°41'602427311.7
2014-Jul-23 20:18N 33°37' W 117°55'60247722.7
2014-Jul-23 19:31N 38°60' E 117°41'0 0.0
2014-Jul-23 18:28N 38°60' E 117°41'0 0.0
2014-Jul-23 17:28N 38°60' E 117°41'447481.4
2014-Jul-23 16:32N 31°60' E 120°48'44720373.0
2014-Jul-23 16:31N 38°60' E 117°41'0 0.0
2014-Jul-23 15:31N 38°60' E 117°41'4475917.2
2014-Jul-23 15:26N 31°60' E 120°48'447483.3
2014-Jul-23 14:31N 38°60' E 117°41'0 0.0
2014-Jul-23 13:31N 38°60' E 117°41'4471491.9
2014-Jul-23 13:13N 31°60' E 120°48'5683.7
2014-Jul-23 12:32N 31°18' E 121°33'4996512.3
2014-Jul-23 12:28N 38°60' E 117°41'495549.0
2014-Jul-23 11:34N 31°22' E 121°30'49493626.5
2014-Jul-23 11:33N 38°60' E 117°43'1 1.1
2014-Jul-23 10:34N 38°59' E 117°44'49055163.9
2014-Jul-23 10:33N 31°25' E 121°30'486489.5
2014-Jul-23 09:33N 38°58' E 117°52'4819066.5
2014-Jul-23 09:30N 31°29' E 121°25'477422.3
2014-Jul-23 08:22N 38°55' E 117°57'0 0.0
2014-Jul-23 06:13N 38°55' E 117°57'0 0.0
2014-Jul-23 05:31N 38°55' E 117°57'0 0.0
2014-Jul-23 04:16N 38°55' E 117°57'0 0.1
2014-Jul-23 02:22N 38°55' E 117°57'60142646.7
2014-Jul-23 00:06N 33°37' W 117°55'601110706.6
2014-Jul-22 23:32N 39°04' E 117°55'951.4
2014-Jul-22 23:22N 38°55' E 117°57'0 0.0
2014-Jul-22 22:34N 38°55' E 117°57'9531.9
2014-Jul-22 22:33N 39°04' E 117°56'1 1.1
2014-Jul-22 21:33N 39°03' E 117°57'82266.5
2014-Jul-22 21:33N 38°55' E 117°57'4382135.2
2014-Jul-22 21:21N 31°60' E 120°48'743499116.9
2014-Jul-22 21:16N 29°33' W 095°02'731510242.4
2014-Jul-22 20:34N 38°55' E 117°57'9750.9
2014-Jul-22 20:33N 39°04' E 117°56'7309313263.1
2014-Jul-22 20:31N 29°33' W 095°02'73157541.0
2014-Jul-22 19:33N 38°55' E 117°57'7315248427.0
2014-Jul-22 19:31N 29°33' W 095°02'743418418.2
2014-Jul-22 19:07N 31°60' E 120°48'433760.4
2014-Jul-22 18:33N 38°52' E 118°05'7311268552.9
2014-Jul-22 18:31N 29°33' W 095°02'7434159295.1
2014-Jul-22 18:29N 31°60' E 120°48'74347799.9
2014-Jul-22 17:31N 29°33' W 095°02'743426923.1
2014-Jul-22 17:15N 31°60' E 120°48'0 0.0
2014-Jul-22 16:33N 31°60' E 120°48'7434224887.3
2014-Jul-22 16:31N 29°33' W 095°02'74347652.7
2014-Jul-22 15:33N 31°60' E 120°48'7434257322.6
2014-Jul-22 15:31N 29°33' W 095°02'0 0.0
2014-Jul-22 14:31N 29°33' W 095°02'745064316.7
2014-Jul-22 14:24N 32°02' E 120°28'74508434.0
2014-Jul-22 13:31N 29°33' W 095°02'745730644.5
2014-Jul-22 13:17N 31°59' E 120°22'74579854.8
2014-Jul-22 12:31N 29°33' W 095°02'743497314.8
2014-Jul-22 12:27N 31°60' E 120°48'74348046.2
2014-Jul-22 11:31N 29°33' W 095°02'0 0.0
2014-Jul-22 10:31N 29°33' W 095°02'0 0.0
2014-Jul-22 09:31N 29°33' W 095°02'0 0.0
2014-Jul-22 08:31N 29°33' W 095°02'0 0.0
2014-Jul-22 07:31N 29°33' W 095°02'0 0.0
2014-Jul-22 06:31N 29°33' W 095°02'0 0.0
2014-Jul-22 05:31N 29°33' W 095°02'0 0.0
2014-Jul-22 04:31N 29°33' W 095°02'0 0.0
2014-Jul-22 03:31N 29°33' W 095°02'730916253.0
2014-Jul-22 03:04N 39°09' E 117°53'3 5.7
2014-Jul-22 02:33N 39°07' E 117°56'7308226786.9
2014-Jul-22 02:31N 29°33' W 095°02'0 0.0
2014-Jul-22 01:32N 29°33' W 095°02'71867435.7
2014-Jul-22 00:34N 37°54' E 121°20'7186213790.5
2014-Jul-22 00:32N 29°33' W 095°02'0 0.0
2014-Jul-21 23:32N 29°33' W 095°02'7458383543.6
2014-Jul-21 23:30N 31°60' E 120°20'2 2.3
2014-Jul-21 22:33N 32°00' E 120°23'7455372766.6
2014-Jul-21 22:32N 29°33' W 095°02'74527527.4
2014-Jul-21 21:32N 32°02' E 120°26'7452745210.7
2014-Jul-21 21:32N 29°33' W 095°02'7163310692.8
2014-Jul-21 21:30N 37°45' E 121°53'350369.8
2014-Jul-21 20:33N 32°02' E 120°28'35013985.0
2014-Jul-21 20:32N 37°43' E 122°04'71561515435.5
2014-Jul-21 20:32N 29°33' W 095°02'0 0.0
2014-Jul-21 20:18N 29°33' W 095°02'71551981275.3
2014-Jul-21 20:18N 37°42' E 122°06'3496013.4
2014-Jul-21 20:14N 32°02' E 120°29'349511.9
2014-Jul-21 19:33N 37°40' E 122°14'3493083.8
2014-Jul-21 19:27N 32°02' E 120°32'348393.0
2014-Jul-21 18:34N 37°38' E 122°25'9 8.5
2014-Jul-21 17:31N 37°35' E 122°35'236946.7
2014-Jul-21 17:16N 38°54' E 117°52'252130.9
2014-Jul-21 15:20N 37°24' E 122°52'249319.0
2014-Jul-21 14:33N 39°04' E 118°02'252584.5
2014-Jul-21 14:07N 37°14' E 122°51'252447.5
2014-Jul-21 13:33N 39°10' E 118°07'449361.2
2014-Jul-21 12:19N 31°60' E 120°48'0 0.1
2014-Jul-21 11:28N 31°60' E 120°48'0 0.0
2014-Jul-21 10:16N 31°60' E 120°48'452643.3
2014-Jul-21 09:33N 39°12' E 118°04'452371.4
2014-Jul-21 08:20N 31°60' E 120°48'4513510.4
2014-Jul-21 08:13N 39°11' E 118°04'0 0.1
2014-Jul-21 07:32N 39°11' E 118°04'45130662.2
2014-Jul-21 07:31N 31°60' E 120°48'450467.1
2014-Jul-21 06:33N 39°08' E 117°56'45012557.6
2014-Jul-21 06:31N 31°60' E 120°48'450446.4
2014-Jul-21 05:31N 39°06' E 117°51'4501111.9
2014-Jul-21 05:07N 31°60' E 120°48'449812.8
2014-Jul-21 04:33N 39°05' E 117°52'4964406.3
2014-Jul-21 04:27N 31°22' E 121°30'52285.6
2014-Jul-21 04:16N 31°60' E 120°48'449633.0
2014-Jul-21 03:33N 39°05' E 117°52'4491953.4
2014-Jul-21 03:19N 31°60' E 120°48'449568.7
2014-Jul-21 02:32N 39°05' E 117°52'0 0.4
2014-Jul-21 01:33N 39°05' E 117°52'51881715.7
2014-Jul-20 22:32N 48°34' W 123°01'5185519.5
2014-Jul-20 12:33N 39°07' E 117°54'  
Track history (hours):
 
Tides and Currents Weather Stations Pressure Air Temp Water Temp Dewpoint Dewpoint Depression Visibility Wind Speed Wind Dir Waves Ship Positions

Paulistana II

Last reported at 2014-Jul-30 12:28 UTC. Time now 2014-Jul-30 13:14 UTC.
Position N 29°56' E 121°41'.

Length 6 m.

Type: Pollution control. MMSI: 316014038.

Date/timePositionNaut miles runAvg speedWind from/ knotsBaromVisibWave heightAir tempDewpointWater temp
2014-Jul-30 12:28N 29°56' E 121°41'746549218.8
2014-Jul-30 12:18N 29°33' W 095°02'7448496527.0
2014-Jul-30 12:18N 29°49' E 122°06'744810133.2
2014-Jul-30 11:33N 29°33' W 095°02'744216787.6
2014-Jul-30 11:07N 31°60' E 120°38'744213376.4
2014-Jul-30 10:33N 29°33' W 095°02'7445101141.7
2014-Jul-30 10:29N 31°60' E 120°35'74458039.2
2014-Jul-30 09:33N 29°33' W 095°02'744774263.0
2014-Jul-30 09:27N 32°01' E 120°32'74478276.9
2014-Jul-30 08:33N 29°33' W 095°02'744789963.1
2014-Jul-30 08:29N 32°01' E 120°32'74477701.5
2014-Jul-30 07:31N 29°33' W 095°02'7447223406.6
2014-Jul-30 07:29N 32°01' E 120°32'74478123.9
2014-Jul-30 06:34N 29°33' W 095°02'74474468084.9
2014-Jul-30 06:33N 32°01' E 120°32'74477459.2
2014-Jul-30 05:34N 29°33' W 095°02'74478936169.8
2014-Jul-30 05:33N 32°01' E 120°32'613087226.7
2014-Jul-30 05:29N 33°37' W 117°55'11951286.8
2014-Jul-30 04:34N 29°33' W 095°02'74473829787.1
2014-Jul-30 04:33N 32°01' E 120°32'613088627.9
2014-Jul-30 04:29N 33°37' W 117°55'61306323.3
2014-Jul-30 03:31N 32°01' E 120°32'7447788485.6
2014-Jul-30 03:31N 29°33' W 095°02'74507825.9
2014-Jul-30 02:33N 32°02' E 120°28'7450155926.7
2014-Jul-30 02:31N 29°33' W 095°02'11956971.9
2014-Jul-30 02:20N 33°37' W 117°55'61407774.9
2014-Jul-30 01:33N 31°59' E 120°22'6140631544.1
2014-Jul-30 01:32N 33°37' W 117°55'119541362.3
2014-Jul-30 01:31N 29°33' W 095°02'74657713.2
2014-Jul-30 00:32N 31°56' E 120°15'7465231662.4
2014-Jul-30 00:31N 29°33' W 095°02'746520945.6
2014-Jul-30 00:09N 29°56' E 121°41'746511608.3
2014-Jul-29 23:31N 29°33' W 095°02'119557355.7
2014-Jul-29 23:29N 33°37' W 117°55'11951220.3
2014-Jul-29 22:31N 29°33' W 095°02'119516803.4
2014-Jul-29 22:26N 33°37' W 117°55'0 0.0
2014-Jul-29 21:32N 33°37' W 117°55'119541763.9
2014-Jul-29 21:31N 29°33' W 095°02'11951230.1
2014-Jul-29 20:32N 33°37' W 117°55'119541763.9
2014-Jul-29 20:31N 29°33' W 095°02'0 0.0
2014-Jul-29 19:31N 29°33' W 095°02'7420129034.8
2014-Jul-29 19:27N 31°24' E 121°30'74207475.6
2014-Jul-29 18:28N 29°33' W 095°02'0 0.0
2014-Jul-29 17:31N 29°33' W 095°02'0 0.0
2014-Jul-29 16:31N 29°33' W 095°02'74212226177.9
2014-Jul-29 16:30N 31°31' E 121°25'6104348790.9
2014-Jul-29 16:29N 33°37' W 117°55'61026524.5
2014-Jul-29 15:33N 31°27' E 121°29'7419170117.1
2014-Jul-29 15:31N 29°33' W 095°02'746555294.6
2014-Jul-29 15:23N 29°56' E 121°41'61457350.0
2014-Jul-29 14:32N 33°37' W 117°55'6101238729.0
2014-Jul-29 14:31N 31°25' E 121°32'74182225294.2
2014-Jul-29 14:31N 29°33' W 095°02'7465767804.6
2014-Jul-29 14:30N 29°56' E 121°41'89339.5
2014-Jul-29 14:14N 31°24' E 121°30'1 1.8
2014-Jul-29 13:33N 31°25' E 121°32'7418162836.7
2014-Jul-29 13:31N 29°33' W 095°02'119556601.0
2014-Jul-29 13:29N 33°37' W 117°55'610321288.0
2014-Jul-29 13:12N 31°24' E 121°30'5 7.1
2014-Jul-29 12:33N 31°20' E 121°33'7420157124.2
2014-Jul-29 12:31N 29°33' W 095°02'7465671828.7
2014-Jul-29 12:30N 29°56' E 121°41'6145597932.0
2014-Jul-29 12:29N 33°37' W 117°55'0 0.0
2014-Jul-29 11:32N 33°37' W 117°55'119540968.4
2014-Jul-29 11:31N 29°33' W 095°02'746566517.7
2014-Jul-29 11:24N 29°56' E 121°41'61457152.8
2014-Jul-29 10:32N 33°37' W 117°55'119541362.3
2014-Jul-29 10:31N 29°33' W 095°02'7465610753.3
2014-Jul-29 10:30N 29°56' E 121°41'89451.8
2014-Jul-29 10:18N 31°24' E 121°30'74199381.8
2014-Jul-29 09:31N 29°33' W 095°02'119555866.0
2014-Jul-29 09:29N 33°37' W 117°55'614571136.6
2014-Jul-29 09:24N 29°56' E 121°41'61457120.5
2014-Jul-29 08:32N 33°37' W 117°55'119540581.9
2014-Jul-29 08:31N 29°33' W 095°02'745919599.8
2014-Jul-29 08:08N 29°59' E 121°46'614010406.1
2014-Jul-29 07:32N 33°37' W 117°55'119540968.4
2014-Jul-29 07:31N 29°33' W 095°02'7455378000.6
2014-Jul-29 07:30N 30°02' E 121°48'61366449.5
2014-Jul-29 06:32N 33°37' W 117°55'119541362.3
2014-Jul-29 06:31N 29°33' W 095°02'74277696.0
2014-Jul-29 05:33N 31°13' E 121°30'7427215610.9
2014-Jul-29 05:31N 29°33' W 095°02'119516803.4
2014-Jul-29 05:26N 33°37' W 117°55'11951286.4
2014-Jul-29 04:31N 29°33' W 095°02'119555865.9
2014-Jul-29 04:29N 33°37' W 117°55'61036398.1
2014-Jul-29 03:32N 31°20' E 121°33'61031464746.9
2014-Jul-29 03:32N 33°37' W 117°55'119558130.8
2014-Jul-29 03:31N 29°33' W 095°02'731319035.2
2014-Jul-29 03:08N 39°05' E 117°52'496835.2
2014-Jul-29 02:32N 31°22' E 121°30'61045493789.1
2014-Jul-29 02:32N 33°37' W 117°55'119558130.8
2014-Jul-29 02:31N 29°33' W 095°02'74197719.4
2014-Jul-29 01:33N 31°24' E 121°31'6102343254.7
2014-Jul-29 01:32N 33°37' W 117°55'119558130.8
2014-Jul-29 01:31N 29°33' W 095°02'11951219.6
2014-Jul-29 00:32N 33°37' W 117°55'119558927.1
2014-Jul-29 00:31N 29°33' W 095°02'11951220.0
2014-Jul-28 23:32N 33°37' W 117°55'119558130.8
2014-Jul-28 23:31N 29°33' W 095°02'744680743.7
2014-Jul-28 23:25N 30°16' E 121°48'74468202.9
2014-Jul-28 22:31N 29°33' W 095°02'119515040.8
2014-Jul-28 22:26N 33°37' W 117°55'611615816.6
2014-Jul-28 22:03N 30°25' E 121°56'743413924.2
2014-Jul-28 21:31N 29°33' W 095°02'119540968.4
2014-Jul-28 21:29N 33°37' W 117°55'61111157817.4
2014-Jul-28 21:29N 30°28' E 122°00'6 6.5
2014-Jul-28 20:33N 30°31' E 122°06'6104258514.9
2014-Jul-28 20:32N 33°37' W 117°55'119558130.8
2014-Jul-28 20:31N 29°33' W 095°02'74147767.4
2014-Jul-28 19:34N 30°36' E 122°12'7414164746.2
2014-Jul-28 19:31N 29°33' W 095°02'74067672.4
2014-Jul-28 18:33N 30°44' E 122°15'6089421522.6
2014-Jul-28 18:32N 33°37' W 117°55'119558927.1
2014-Jul-28 18:31N 29°33' W 095°02'73987708.0
2014-Jul-28 17:33N 30°50' E 122°20'6081312712.1
2014-Jul-28 17:32N 33°37' W 117°55'119558130.8
2014-Jul-28 17:31N 29°33' W 095°02'0 0.0
2014-Jul-28 16:31N 29°33' W 095°02'738451519.3
2014-Jul-28 16:22N 30°56' E 122°31'73848620.0
2014-Jul-28 15:31N 29°33' W 095°02'0 0.0
2014-Jul-28 14:31N 29°33' W 095°02'0 0.0
2014-Jul-28 13:31N 29°33' W 095°02'0 0.0
2014-Jul-28 12:31N 29°33' W 095°02'11959231.1
2014-Jul-28 12:23N 33°37' W 117°55'0 0.0
2014-Jul-28 11:32N 33°37' W 117°55'119558130.8
2014-Jul-28 11:31N 29°33' W 095°02'0 0.0
2014-Jul-28 10:31N 29°33' W 095°02'0 0.0
2014-Jul-28 09:31N 29°33' W 095°02'0 0.0
2014-Jul-28 08:28N 29°33' W 095°02'11951286.4
2014-Jul-28 07:32N 33°37' W 117°55'119516869.3
2014-Jul-28 07:28N 29°33' W 095°02'11951285.6
2014-Jul-28 06:32N 33°37' W 117°55'119559745.5
2014-Jul-28 06:31N 29°33' W 095°02'0 0.0
2014-Jul-28 05:31N 29°33' W 095°02'119540202.6
2014-Jul-28 05:29N 33°37' W 117°55'0 0.0
2014-Jul-28 04:32N 33°37' W 117°55'119556601.0
2014-Jul-28 04:31N 29°33' W 095°02'11951220.3
2014-Jul-28 03:32N 33°37' W 117°55'11959911.7
2014-Jul-28 03:25N 29°33' W 095°02'11951359.1
2014-Jul-28 02:32N 33°37' W 117°55'119557355.7
2014-Jul-28 02:31N 29°33' W 095°02'0 0.0
2014-Jul-28 01:16N 29°33' W 095°02'11951638.1
2014-Jul-28 00:32N 33°37' W 117°55'119558130.9
2014-Jul-28 00:31N 29°33' W 095°02'73107599.1
2014-Jul-27 23:33N 39°04' E 117°56'6009343396.8
2014-Jul-27 23:32N 33°37' W 117°55'119558927.1
2014-Jul-27 23:31N 29°33' W 095°02'772618909.0
2014-Jul-27 23:06N 25°45' E 119°39'8031414.9
2014-Jul-27 22:32N 39°04' E 117°55'731159141.9
2014-Jul-27 22:25N 29°33' W 095°02'73108399.7
2014-Jul-27 21:33N 39°04' E 117°56'601021634654.6
2014-Jul-27 21:33N 33°37' W 117°55'119515146.8
2014-Jul-27 21:28N 29°33' W 095°02'248415231.4
2014-Jul-27 21:18N 58°37' W 136°03'43475597.4
2014-Jul-27 20:32N 39°05' E 117°56'7310692493.9
2014-Jul-27 20:31N 29°33' W 095°02'2481637890.1
2014-Jul-27 20:31N 58°31' W 136°04'43474441.8
2014-Jul-27 19:32N 39°09' E 117°53'7309424407.8
2014-Jul-27 19:31N 29°33' W 095°02'0 0.0
2014-Jul-27 18:31N 29°33' W 095°02'24732579.5
2014-Jul-27 17:34N 58°27' W 135°53'247312999.4
2014-Jul-27 17:22N 29°33' W 095°02'24732968.8
2014-Jul-27 16:32N 58°22' W 135°58'247336790.7
2014-Jul-27 16:28N 29°33' W 095°02'0 0.0
2014-Jul-27 15:28N 29°33' W 095°02'74208144.1
2014-Jul-27 14:33N 31°20' E 121°33'742053424.9
2014-Jul-27 14:25N 29°33' W 095°02'74208630.2
2014-Jul-27 13:33N 31°24' E 121°31'742052892.0
2014-Jul-27 13:25N 29°33' W 095°02'74208564.6
2014-Jul-27 12:33N 31°27' E 121°27'420116300.5
2014-Jul-27 12:33N 24°48' E 118°58'7798262375.6
2014-Jul-27 12:31N 29°33' W 095°02'744722304.1
2014-Jul-27 12:11N 32°01' E 120°32'2 3.0
2014-Jul-27 11:33N 32°02' E 120°30'744894085.0
2014-Jul-27 11:28N 29°33' W 095°02'742340738.6
2014-Jul-27 11:17N 31°33' E 121°20'5575.6
2014-Jul-27 10:34N 32°00' E 120°24'745582827.9
2014-Jul-27 10:28N 29°33' W 095°02'74618179.0
2014-Jul-27 09:33N 31°57' E 120°18'746184999.5
2014-Jul-27 09:28N 29°33' W 095°02'717817919.7
2014-Jul-27 09:04N 36°14' E 122°44'287540.8
2014-Jul-27 08:32N 31°56' E 120°14'7466383964.1
2014-Jul-27 08:31N 29°33' W 095°02'0 0.0
2014-Jul-27 07:28N 29°33' W 095°02'11953633.2
2014-Jul-27 07:08N 33°37' W 117°55'58588506.5
2014-Jul-27 06:27N 36°41' E 122°45'5858514334.6
2014-Jul-27 06:26N 33°37' W 117°55'119558130.7
2014-Jul-27 06:25N 29°33' W 095°02'71548244.4
2014-Jul-27 05:33N 36°50' E 122°45'715486718.6
2014-Jul-27 05:28N 29°33' W 095°02'119514988.4
2014-Jul-27 05:23N 33°37' W 117°55'610047636.7
2014-Jul-27 05:16N 31°25' E 121°33'4592852.0
2014-Jul-27 05:06N 24°25' E 118°04'88226691.0
2014-Jul-27 05:04N 39°07' E 117°54'262491.8
2014-Jul-27 04:32N 37°01' E 122°46'7147494782.3
2014-Jul-27 04:31N 29°33' W 095°02'11953142.2
2014-Jul-27 04:08N 33°37' W 117°55'58399923.9
2014-Jul-27 03:33N 37°13' E 122°46'5839488808.1
2014-Jul-27 03:32N 33°37' W 117°55'11957028.9
2014-Jul-27 03:22N 29°33' W 095°02'0 0.0
2014-Jul-27 02:31N 29°33' W 095°02'713218537.5
2014-Jul-27 02:08N 37°28' E 122°44'713211591.2
2014-Jul-27 01:31N 29°33' W 095°02'11956669.3
2014-Jul-27 01:20N 33°37' W 117°55'58361909958.8
2014-Jul-27 01:20N 37°32' E 122°36'8 9.9
2014-Jul-27 00:30N 37°35' E 122°26'7143191893.0
2014-Jul-27 00:28N 29°33' W 095°02'71507807.2
2014-Jul-26 23:33N 37°38' E 122°15'715084951.9
2014-Jul-26 23:28N 29°33' W 095°02'71587818.3
2014-Jul-26 22:33N 37°41' E 122°03'7158211222.3
2014-Jul-26 22:31N 29°33' W 095°02'71667373.3
2014-Jul-26 21:33N 37°44' E 121°50'716691812.4
2014-Jul-26 21:28N 29°33' W 095°02'12949045.2
2014-Jul-26 21:20N 41°16' W 072°49'874711302.2
2014-Jul-26 20:33N 39°04' E 117°56'19040149.3
2014-Jul-26 20:33N 37°48' E 121°37'89992024714.0
2014-Jul-26 20:33N 41°16' W 072°46'129654869.0
2014-Jul-26 20:31N 29°33' W 095°02'12961339.7
2014-Jul-26 19:33N 41°15' W 072°45'8738953233.8
2014-Jul-26 19:33N 39°08' E 117°53'1824012.5
2014-Jul-26 19:30N 37°51' E 121°24'7184261242.8
2014-Jul-26 19:28N 29°33' W 095°02'745858878.1
2014-Jul-26 19:21N 31°60' E 120°20'931411782.0
2014-Jul-26 18:33N 41°15' W 072°45'9316958264.1
2014-Jul-26 18:33N 32°02' E 120°26'3556949.5
2014-Jul-26 18:30N 37°55' E 121°11'719399591.9
2014-Jul-26 18:25N 29°33' W 095°02'12951480.4
2014-Jul-26 17:33N 41°14' W 072°46'129551780.1
2014-Jul-26 17:31N 29°33' W 095°02'72097453.7
2014-Jul-26 16:33N 38°00' E 120°47'7209218098.0
2014-Jul-26 16:31N 29°33' W 095°02'0 0.0
2014-Jul-26 15:31N 29°33' W 095°02'0 0.0
2014-Jul-26 14:31N 29°33' W 095°02'0 0.0
2014-Jul-26 13:28N 29°33' W 095°02'0 0.0
2014-Jul-26 12:19N 29°33' W 095°02'0 0.0
2014-Jul-26 11:25N 29°33' W 095°02'724971496.6
2014-Jul-26 11:19N 38°20' E 119°44'72499077.0
2014-Jul-26 10:31N 29°33' W 095°02'725639337.9
2014-Jul-26 10:20N 38°25' E 119°32'72568896.6
2014-Jul-26 09:31N 29°33' W 095°02'726443223.5
2014-Jul-26 09:21N 38°28' E 119°20'72648740.0
2014-Jul-26 08:31N 29°33' W 095°02'0 0.0
2014-Jul-26 07:31N 29°33' W 095°02'727994949.7
2014-Jul-26 07:27N 38°33' E 118°57'72797886.3
2014-Jul-26 06:31N 29°33' W 095°02'73042199.0
2014-Jul-26 03:12N 38°49' E 118°14'7 9.2
2014-Jul-26 02:26N 38°53' E 118°07'9 9.8
2014-Jul-26 01:33N 38°57' E 117°56'8 8.5
2014-Jul-26 00:33N 38°58' E 117°46'3 2.7
2014-Jul-25 23:33N 38°60' E 117°43'1 1.2
2014-Jul-25 22:33N 38°60' E 117°41'2 2.2
2014-Jul-25 21:33N 39°00' E 117°39'49629246.0
2014-Jul-25 21:32N 31°22' E 121°29'74231234.6
2014-Jul-25 15:31N 29°33' W 095°02'0 0.0
2014-Jul-25 14:25N 29°33' W 095°02'0 0.0
2014-Jul-25 13:23N 29°33' W 095°02'0 0.0
2014-Jul-25 12:32N 29°33' W 095°02'0 0.0
2014-Jul-25 11:20N 29°33' W 095°02'0 0.0
2014-Jul-25 10:29N 29°33' W 095°02'0 0.0
2014-Jul-25 09:26N 29°33' W 095°02'0 0.0
2014-Jul-25 08:23N 29°33' W 095°02'0 0.0
2014-Jul-25 07:26N 29°33' W 095°02'0 0.0
2014-Jul-25 06:29N 29°33' W 095°02'0 0.0
2014-Jul-25 05:32N 29°33' W 095°02'0 0.0
2014-Jul-25 04:32N 29°33' W 095°02'11958672.7
2014-Jul-25 04:23N 33°37' W 117°55'11951386.3
2014-Jul-25 03:32N 29°33' W 095°02'11959270.9
2014-Jul-25 03:24N 33°37' W 117°55'0 0.0
2014-Jul-25 02:33N 33°37' W 117°55'11954398.4
2014-Jul-25 02:17N 29°33' W 095°02'7426417720.9
2014-Jul-25 02:16N 31°21' E 121°25'61098584.2
2014-Jul-25 01:33N 33°37' W 117°55'6107422786.0
2014-Jul-25 01:32N 31°21' E 121°27'3 2.7
2014-Jul-25 00:30N 31°23' E 121°30'6104108244.3
2014-Jul-25 00:27N 33°37' W 117°55'119516935.8
2014-Jul-25 00:23N 29°33' W 095°02'11951358.7
2014-Jul-24 23:30N 33°37' W 117°55'119558130.8
2014-Jul-24 23:29N 29°33' W 095°02'0 0.0
2014-Jul-24 22:33N 29°33' W 095°02'119512432.6
2014-Jul-24 22:27N 33°37' W 117°55'0 0.0
2014-Jul-24 20:18N 33°37' W 117°55'22192351.2
2014-Jul-24 19:21N 41°19' W 072°21'1 0.7
2014-Jul-24 18:33N 41°18' W 072°21'92926653.2
2014-Jul-24 17:09N 31°58' E 120°18'3 5.8
2014-Jul-24 16:33N 32°00' E 120°22'9292643307.0
2014-Jul-24 16:32N 41°19' W 072°21'92929431.3
2014-Jul-24 15:33N 32°03' E 120°26'9292631184.5
2014-Jul-24 15:32N 41°19' W 072°21'0 0.0
2014-Jul-24 14:29N 41°19' W 072°21'93042320.3
2014-Jul-24 10:29N 32°01' E 120°37'3 3.0
2014-Jul-24 09:33N 32°00' E 120°40'4 3.9
2014-Jul-24 08:32N 32°01' E 120°44'447103.5
2014-Jul-24 04:12N 39°02' E 117°37'0 0.0
2014-Jul-24 03:32N 39°02' E 117°37'0 0.0
2014-Jul-24 02:32N 39°02' E 117°37'0 0.0
2014-Jul-24 01:32N 39°02' E 117°37'60266061.4
2014-Jul-24 00:33N 33°37' W 117°55'6026943207.0
2014-Jul-24 00:32N 39°02' E 117°37'60266063.1
2014-Jul-23 23:33N 33°37' W 117°55'6026903906.7
2014-Jul-23 23:32N 39°02' E 117°37'4483209.9
2014-Jul-23 23:24N 32°01' E 120°48'448448.5
2014-Jul-23 22:24N 39°01' E 117°38'2 2.4
2014-Jul-23 21:32N 39°00' E 117°40'1440.9
2014-Jul-23 21:12N 38°57' E 117°58'601259626.8
2014-Jul-23 21:06N 33°37' W 117°55'602410400.7
2014-Jul-23 20:31N 38°60' E 117°41'602427311.7
2014-Jul-23 20:18N 33°37' W 117°55'60247722.7
2014-Jul-23 19:31N 38°60' E 117°41'0 0.0
2014-Jul-23 18:28N 38°60' E 117°41'0 0.0
2014-Jul-23 17:28N 38°60' E 117°41'447481.4
2014-Jul-23 16:32N 31°60' E 120°48'44720373.0
2014-Jul-23 16:31N 38°60' E 117°41'0 0.0
2014-Jul-23 15:31N 38°60' E 117°41'4475917.2
2014-Jul-23 15:26N 31°60' E 120°48'447483.3
2014-Jul-23 14:31N 38°60' E 117°41'0 0.0
2014-Jul-23 13:31N 38°60' E 117°41'4471491.9
2014-Jul-23 13:13N 31°60' E 120°48'5683.7
2014-Jul-23 12:32N 31°18' E 121°33'4996512.3
2014-Jul-23 12:28N 38°60' E 117°41'495549.0
2014-Jul-23 11:34N 31°22' E 121°30'49493626.5
2014-Jul-23 11:33N 38°60' E 117°43'1 1.1
2014-Jul-23 10:34N 38°59' E 117°44'49055163.9
2014-Jul-23 10:33N 31°25' E 121°30'486489.5
2014-Jul-23 09:33N 38°58' E 117°52'4819066.5
2014-Jul-23 09:30N 31°29' E 121°25'477422.3
2014-Jul-23 08:22N 38°55' E 117°57'0 0.0
2014-Jul-23 06:13N 38°55' E 117°57'0 0.0
2014-Jul-23 05:31N 38°55' E 117°57'0 0.0
2014-Jul-23 04:16N 38°55' E 117°57'0 0.1
2014-Jul-23 02:22N 38°55' E 117°57'60142646.7
2014-Jul-23 00:06N 33°37' W 117°55'601110706.6
2014-Jul-22 23:32N 39°04' E 117°55'951.4
2014-Jul-22 23:22N 38°55' E 117°57'0 0.0
2014-Jul-22 22:34N 38°55' E 117°57'9531.9
2014-Jul-22 22:33N 39°04' E 117°56'1 1.1
2014-Jul-22 21:33N 39°03' E 117°57'82266.5
2014-Jul-22 21:33N 38°55' E 117°57'4382135.2
2014-Jul-22 21:21N 31°60' E 120°48'743499116.9
2014-Jul-22 21:16N 29°33' W 095°02'731510242.4
2014-Jul-22 20:34N 38°55' E 117°57'9750.9
2014-Jul-22 20:33N 39°04' E 117°56'7309313263.1
2014-Jul-22 20:31N 29°33' W 095°02'73157541.0
2014-Jul-22 19:33N 38°55' E 117°57'7315248427.0
2014-Jul-22 19:31N 29°33' W 095°02'743418418.2
2014-Jul-22 19:07N 31°60' E 120°48'433760.4
2014-Jul-22 18:33N 38°52' E 118°05'7311268552.9
2014-Jul-22 18:31N 29°33' W 095°02'7434159295.1
2014-Jul-22 18:29N 31°60' E 120°48'74347799.9
2014-Jul-22 17:31N 29°33' W 095°02'743426923.1
2014-Jul-22 17:15N 31°60' E 120°48'0 0.0
2014-Jul-22 16:33N 31°60' E 120°48'7434224887.3
2014-Jul-22 16:31N 29°33' W 095°02'74347652.7
2014-Jul-22 15:33N 31°60' E 120°48'7434257322.6
2014-Jul-22 15:31N 29°33' W 095°02'0 0.0
2014-Jul-22 14:31N 29°33' W 095°02'745064316.7
2014-Jul-22 14:24N 32°02' E 120°28'74508434.0
2014-Jul-22 13:31N 29°33' W 095°02'745730644.5
2014-Jul-22 13:17N 31°59' E 120°22'74579854.8
2014-Jul-22 12:31N 29°33' W 095°02'743497314.8
2014-Jul-22 12:27N 31°60' E 120°48'74348046.2
2014-Jul-22 11:31N 29°33' W 095°02'0 0.0
2014-Jul-22 10:31N 29°33' W 095°02'0 0.0
2014-Jul-22 09:31N 29°33' W 095°02'0 0.0
2014-Jul-22 08:31N 29°33' W 095°02'0 0.0
2014-Jul-22 07:31N 29°33' W 095°02'0 0.0
2014-Jul-22 06:31N 29°33' W 095°02'0 0.0
2014-Jul-22 05:31N 29°33' W 095°02'0 0.0
2014-Jul-22 04:31N 29°33' W 095°02'0 0.0
2014-Jul-22 03:31N 29°33' W 095°02'730916253.0
2014-Jul-22 03:04N 39°09' E 117°53'3 5.7
2014-Jul-22 02:33N 39°07' E 117°56'7308226786.9
2014-Jul-22 02:31N 29°33' W 095°02'0 0.0
2014-Jul-22 01:32N 29°33' W 095°02'71867435.7
2014-Jul-22 00:34N 37°54' E 121°20'7186213790.5
2014-Jul-22 00:32N 29°33' W 095°02'0 0.0
2014-Jul-21 23:32N 29°33' W 095°02'7458383543.6
2014-Jul-21 23:30N 31°60' E 120°20'2 2.3
2014-Jul-21 22:33N 32°00' E 120°23'7455372766.6
2014-Jul-21 22:32N 29°33' W 095°02'74527527.4
2014-Jul-21 21:32N 32°02' E 120°26'7452745210.7
2014-Jul-21 21:32N 29°33' W 095°02'7163310692.8
2014-Jul-21 21:30N 37°45' E 121°53'350369.8
2014-Jul-21 20:33N 32°02' E 120°28'35013985.0
2014-Jul-21 20:32N 37°43' E 122°04'71561515435.5
2014-Jul-21 20:32N 29°33' W 095°02'0 0.0
2014-Jul-21 20:18N 29°33' W 095°02'71551981275.3
2014-Jul-21 20:18N 37°42' E 122°06'3496013.4
2014-Jul-21 20:14N 32°02' E 120°29'349511.9
2014-Jul-21 19:33N 37°40' E 122°14'3493083.8
2014-Jul-21 19:27N 32°02' E 120°32'348393.0
2014-Jul-21 18:34N 37°38' E 122°25'9 8.5
2014-Jul-21 17:31N 37°35' E 122°35'236946.7
2014-Jul-21 17:16N 38°54' E 117°52'252130.9
2014-Jul-21 15:20N 37°24' E 122°52'249319.0
2014-Jul-21 14:33N 39°04' E 118°02'252584.5
2014-Jul-21 14:07N 37°14' E 122°51'252447.5
2014-Jul-21 13:33N 39°10' E 118°07'449361.2
2014-Jul-21 12:19N 31°60' E 120°48'0 0.1
2014-Jul-21 11:28N 31°60' E 120°48'0 0.0
2014-Jul-21 10:16N 31°60' E 120°48'452643.3
2014-Jul-21 09:33N 39°12' E 118°04'452371.4
2014-Jul-21 08:20N 31°60' E 120°48'4513510.4
2014-Jul-21 08:13N 39°11' E 118°04'0 0.1
2014-Jul-21 07:32N 39°11' E 118°04'45130662.2
2014-Jul-21 07:31N 31°60' E 120°48'450467.1
2014-Jul-21 06:33N 39°08' E 117°56'45012557.6
2014-Jul-21 06:31N 31°60' E 120°48'450446.4
2014-Jul-21 05:31N 39°06' E 117°51'4501111.9
2014-Jul-21 05:07N 31°60' E 120°48'449812.8
2014-Jul-21 04:33N 39°05' E 117°52'4964406.3
2014-Jul-21 04:27N 31°22' E 121°30'52285.6
2014-Jul-21 04:16N 31°60' E 120°48'449633.0
2014-Jul-21 03:33N 39°05' E 117°52'4491953.4
2014-Jul-21 03:19N 31°60' E 120°48'449568.7
2014-Jul-21 02:32N 39°05' E 117°52'0 0.4
2014-Jul-21 01:33N 39°05' E 117°52'51881715.7
2014-Jul-20 22:32N 48°34' W 123°01'5185519.5
2014-Jul-20 12:33N 39°07' E 117°54'  

Dump ship's entire track history